Airfield :
LOGIN :

Register | Disclaimer

   EN    FR    IT 

 










Legend :    VFR   Marginal VFR   IFR   Intensive IFR   Very Intensive IFR
Visi :
Ceiling :
>= 8 km
>= 3000ft
5 to 8 km
1000 to 3000 ft
1500m to 5 km
500 to 1000 ft
800 to 1500m
200 to 500 ft
< 800m
< 200 ft
Symbols :   Thunderstorms  Fog  Heavy snow  Heavy precipitations  Wind > 20 kt
SIGMETs :     Misc.  Thunderstorms  Icing  Turbulence  Mountain Waves  Volcanic Ashes






- Airport Elevation : 1058 ft
- IATA code : SCN


EDDR - Saarbrücken

CURRENT METAR :
  • 162350Z 17006KT 1200 R09/P2000N SN BR FEW003 BKN005 M03/M04 Q1016

EXPIRED METARs :
  • 162320Z 17007KT 2500 -SN BR FEW004 BKN006 M03/M04 Q1017
  • 162250Z 17007KT 2000 -SN BR BKN007 BKN022 M03/M04 Q1017
  • 162220Z 17006KT 2000 -SN BR BKN007 M03/M04 Q1017 RESN
  • 162150Z 16006KT 1200 R09/P2000N SN BR BKN007 M03/M04 Q1018
  • 162120Z 17005KT 1500 -SN BR BKN005 BKN015 M03/M04 Q1018 TEMPO 3000
  • 162050Z 17005KT 3500 -SN BR FEW005 BKN016 BKN034 M04/M04 Q1019 RESN TEMPO BKN008

TAF TAF EDDR
Valid from the 17 at 00:00 until the 18 at 00:00 UTC


162300Z 1700/1724 20005KT 6000 SCT004 BKN015
TEMPO 1700/1712 2500 -SN BKN004
PROB30
TEMPO 1700/1706 1000 SN
BECMG 1708/1711 26005KT
TEMPO 1712/1714 4000 -SNRA BKN004
TEMPO 1714/1724 4000 -DZ BKN004



MET'MAP, your aeronautical weather chart ! - Copyright ORBIFLY December 2007 - Disclaimer

ORBIFLY MET'MAP TEAM :

Programming & Development : Alexandra Zaïnal
Concept & original design : Baudouin d'Aumeries
Assistance for programming : Marc-Olivier Méhu
Technical & hardware support : Manuel Goepfert

Contact : metmap@orbifly.com




SOURCES & CREDITS :

   NOAA